CFG215 EDDL-EBBR
Flight info
| Callsign | CFG215 |
|---|---|
| Flight time | 0h 28m |
| Altitude | 20000 |
| Route | MODRU2T MODRU Z283 LNO |
| Aircraft | A320/M-SDE3FGHIRWY/LB1 |
Departure
| Time | 2026-05-07 09:59 |
|---|---|
| Airport | Düsseldorf Airport (EDDL) |
Arrival
| Time | 2026-05-07 10:27 |
|---|---|
| Airport | Brussels Airport (EBBR) |
| Time | Latitude | Longitude | Altitude | Speed | Heading |
|---|---|---|---|---|---|
| 2026-05-07 09:11 | 51.28517 | 6.77108 | 131 ft | 0 kts | 323° |
| 2026-05-07 09:48 | 51.28497 | 6.77130 | 130 ft | 4 kts | 329° |
| 2026-05-07 09:48 | 51.28474 | 6.77148 | 125 ft | 4 kts | 346° |
| 2026-05-07 09:48 | 51.28450 | 6.77149 | 129 ft | 4 kts | 37° |
| 2026-05-07 09:49 | 51.28444 | 6.77142 | 131 ft | 0 kts | 52° |
| 2026-05-07 09:49 | 51.28445 | 6.77142 | 129 ft | 0 kts | 52° |
| 2026-05-07 09:53 | 51.28489 | 6.77236 | 130 ft | 13 kts | 52° |
| 2026-05-07 09:53 | 51.28539 | 6.77349 | 126 ft | 12 kts | 56° |
| 2026-05-07 09:53 | 51.28589 | 6.77457 | 124 ft | 12 kts | 52° |
| 2026-05-07 09:53 | 51.28637 | 6.77557 | 131 ft | 10 kts | 53° |
| 2026-05-07 09:54 | 51.28664 | 6.77619 | 126 ft | 10 kts | 60° |
| 2026-05-07 09:54 | 51.28670 | 6.77736 | 126 ft | 14 kts | 67° |
| 2026-05-07 09:54 | 51.28736 | 6.77862 | 124 ft | 15 kts | 31° |
| 2026-05-07 09:54 | 51.28821 | 6.77795 | 128 ft | 15 kts | 322° |
| 2026-05-07 09:55 | 51.28903 | 6.77699 | 130 ft | 13 kts | 334° |
| 2026-05-07 09:55 | 51.28962 | 6.77769 | 131 ft | 12 kts | 52° |
| 2026-05-07 09:55 | 51.29006 | 6.77859 | 133 ft | 8 kts | 53° |
| 2026-05-07 09:55 | 51.29037 | 6.77925 | 134 ft | 10 kts | 53° |
| 2026-05-07 09:56 | 51.29082 | 6.78020 | 134 ft | 10 kts | 53° |
| 2026-05-07 09:56 | 51.29123 | 6.78106 | 134 ft | 9 kts | 53° |
| 2026-05-07 09:56 | 51.29156 | 6.78174 | 135 ft | 7 kts | 48° |
| 2026-05-07 09:56 | 51.29195 | 6.78209 | 135 ft | 12 kts | 15° |
| 2026-05-07 09:57 | 51.29262 | 6.78184 | 135 ft | 3 kts | 327° |
| 2026-05-07 09:57 | 51.29291 | 6.78151 | 135 ft | 8 kts | 323° |
| 2026-05-07 09:57 | 51.29331 | 6.78089 | 134 ft | 7 kts | 282° |
| 2026-05-07 09:57 | 51.29315 | 6.78040 | 134 ft | 0 kts | 234° |
| 2026-05-07 09:58 | 51.29251 | 6.77901 | 134 ft | 52 kts | 232° |
| 2026-05-07 09:58 | 51.28878 | 6.77123 | 126 ft | 121 kts | 232° |
| 2026-05-07 09:58 | 51.28266 | 6.75829 | 252 ft | 159 kts | 234° |
| 2026-05-07 09:59 | 51.27591 | 6.74426 | 903 ft | 160 kts | 233° |
| 2026-05-07 09:59 | 51.26898 | 6.73019 | 1565 ft | 161 kts | 234° |
| 2026-05-07 09:59 | 51.26194 | 6.71579 | 2042 ft | 175 kts | 235° |
| 2026-05-07 09:59 | 51.25422 | 6.69938 | 2400 ft | 193 kts | 233° |
| 2026-05-07 10:00 | 51.24581 | 6.68118 | 2757 ft | 215 kts | 234° |
| 2026-05-07 10:00 | 51.23708 | 6.66101 | 3420 ft | 222 kts | 244° |
| 2026-05-07 10:00 | 51.23452 | 6.63711 | 4145 ft | 223 kts | 285° |
| 2026-05-07 10:00 | 51.24226 | 6.61516 | 4547 ft | 243 kts | 321° |
| 2026-05-07 10:01 | 51.25622 | 6.59796 | 5059 ft | 263 kts | 323° |
| 2026-05-07 10:01 | 51.27081 | 6.57988 | 5949 ft | 266 kts | 323° |
| 2026-05-07 10:01 | 51.28552 | 6.56178 | 6940 ft | 266 kts | 324° |
| 2026-05-07 10:01 | 51.30017 | 6.54401 | 7996 ft | 262 kts | 324° |
| 2026-05-07 10:02 | 51.31497 | 6.52626 | 8711 ft | 275 kts | 324° |
| 2026-05-07 10:02 | 51.33067 | 6.50734 | 9356 ft | 285 kts | 323° |
| 2026-05-07 10:02 | 51.34619 | 6.48781 | 10297 ft | 285 kts | 322° |
| 2026-05-07 10:02 | 51.36168 | 6.46783 | 11147 ft | 287 kts | 321° |
| 2026-05-07 10:03 | 51.37717 | 6.44742 | 11945 ft | 290 kts | 317° |
| 2026-05-07 10:03 | 51.38922 | 6.42144 | 12703 ft | 294 kts | 294° |
| 2026-05-07 10:03 | 51.39386 | 6.38962 | 13444 ft | 298 kts | 271° |
| 2026-05-07 10:03 | 51.39016 | 6.35701 | 14166 ft | 302 kts | 248° |
| 2026-05-07 10:04 | 51.37833 | 6.32915 | 14850 ft | 308 kts | 223° |
| 2026-05-07 10:04 | 51.36113 | 6.30835 | 15553 ft | 312 kts | 216° |
| 2026-05-07 10:04 | 51.34330 | 6.28828 | 16263 ft | 314 kts | 216° |
| 2026-05-07 10:04 | 51.32482 | 6.27006 | 16917 ft | 319 kts | 206° |
| 2026-05-07 10:05 | 51.30366 | 6.25652 | 17123 ft | 339 kts | 201° |
| 2026-05-07 10:05 | 51.28083 | 6.24319 | 17259 ft | 359 kts | 201° |
| 2026-05-07 10:05 | 51.25682 | 6.22928 | 17481 ft | 374 kts | 201° |
| 2026-05-07 10:05 | 51.23216 | 6.21503 | 17987 ft | 380 kts | 201° |
| 2026-05-07 10:06 | 51.20719 | 6.20055 | 18570 ft | 384 kts | 201° |
| 2026-05-07 10:06 | 51.18198 | 6.18582 | 19163 ft | 387 kts | 201° |
| 2026-05-07 10:06 | 51.15667 | 6.17098 | 19733 ft | 390 kts | 201° |
| 2026-05-07 10:06 | 51.13111 | 6.15602 | 20315 ft | 393 kts | 201° |
| 2026-05-07 10:07 | 51.10532 | 6.14101 | 20840 ft | 396 kts | 201° |
| 2026-05-07 10:07 | 51.07939 | 6.12598 | 21013 ft | 397 kts | 201° |
| 2026-05-07 10:07 | 51.05308 | 6.11071 | 21053 ft | 407 kts | 201° |
| 2026-05-07 10:07 | 51.02639 | 6.09484 | 21053 ft | 410 kts | 204° |
| 2026-05-07 10:08 | 51.00121 | 6.07401 | 21052 ft | 409 kts | 213° |
| 2026-05-07 10:08 | 50.97703 | 6.05001 | 21054 ft | 410 kts | 213° |
| 2026-05-07 10:08 | 50.95286 | 6.02608 | 21056 ft | 410 kts | 213° |
| 2026-05-07 10:08 | 50.92852 | 6.00261 | 21051 ft | 410 kts | 211° |
| 2026-05-07 10:09 | 50.90366 | 5.98046 | 21053 ft | 410 kts | 209° |
| 2026-05-07 10:09 | 50.87847 | 5.95926 | 21055 ft | 410 kts | 208° |
| 2026-05-07 10:09 | 50.85315 | 5.93850 | 21054 ft | 410 kts | 208° |
| 2026-05-07 10:09 | 50.82785 | 5.91778 | 21052 ft | 410 kts | 208° |
| 2026-05-07 10:10 | 50.80266 | 5.89685 | 21053 ft | 410 kts | 209° |
| 2026-05-07 10:10 | 50.77788 | 5.87584 | 21055 ft | 400 kts | 209° |
| 2026-05-07 10:10 | 50.75358 | 5.85489 | 21053 ft | 396 kts | 210° |
| 2026-05-07 10:10 | 50.72942 | 5.83387 | 21053 ft | 396 kts | 210° |
| 2026-05-07 10:11 | 50.70532 | 5.81293 | 21055 ft | 396 kts | 210° |
| 2026-05-07 10:11 | 50.68122 | 5.79212 | 21054 ft | 396 kts | 209° |
| 2026-05-07 10:11 | 50.65790 | 5.76914 | 21053 ft | 394 kts | 221° |
| 2026-05-07 10:11 | 50.63996 | 5.73710 | 20842 ft | 391 kts | 238° |
| 2026-05-07 10:12 | 50.62959 | 5.69736 | 19858 ft | 398 kts | 260° |
| 2026-05-07 10:12 | 50.62928 | 5.65365 | 19060 ft | 401 kts | 279° |
| 2026-05-07 10:12 | 50.63807 | 5.61229 | 18401 ft | 400 kts | 298° |
| 2026-05-07 10:12 | 50.65399 | 5.57657 | 17781 ft | 398 kts | 308° |
| 2026-05-07 10:13 | 50.67110 | 5.54246 | 17170 ft | 396 kts | 308° |
| 2026-05-07 10:13 | 50.68823 | 5.50865 | 16583 ft | 393 kts | 308° |
| 2026-05-07 10:13 | 50.70519 | 5.47530 | 16035 ft | 390 kts | 308° |
| 2026-05-07 10:13 | 50.72209 | 5.44211 | 15482 ft | 386 kts | 308° |
| 2026-05-07 10:14 | 50.73888 | 5.40912 | 14913 ft | 383 kts | 308° |
| 2026-05-07 10:14 | 50.75541 | 5.37650 | 14480 ft | 377 kts | 308° |
| 2026-05-07 10:14 | 50.77162 | 5.34438 | 14008 ft | 372 kts | 308° |
| 2026-05-07 10:14 | 50.78759 | 5.31260 | 13531 ft | 366 kts | 308° |
| 2026-05-07 10:15 | 50.80329 | 5.28131 | 13050 ft | 362 kts | 308° |
| 2026-05-07 10:15 | 50.81881 | 5.25037 | 12573 ft | 357 kts | 308° |
| 2026-05-07 10:15 | 50.83415 | 5.21975 | 12097 ft | 352 kts | 308° |
| 2026-05-07 10:15 | 50.84922 | 5.18954 | 11617 ft | 347 kts | 308° |
| 2026-05-07 10:16 | 50.86408 | 5.15971 | 11134 ft | 343 kts | 308° |
| 2026-05-07 10:16 | 50.87857 | 5.12979 | 10508 ft | 344 kts | 304° |
| 2026-05-07 10:16 | 50.89180 | 5.09819 | 9870 ft | 343 kts | 303° |
| 2026-05-07 10:16 | 50.90469 | 5.06636 | 9250 ft | 343 kts | 302° |
| 2026-05-07 10:17 | 50.91737 | 5.03448 | 8630 ft | 341 kts | 302° |
| 2026-05-07 10:17 | 50.92989 | 5.00284 | 7999 ft | 334 kts | 302° |
| 2026-05-07 10:17 | 50.94271 | 4.97327 | 7376 ft | 318 kts | 313° |
| 2026-05-07 10:17 | 50.95932 | 4.95146 | 6761 ft | 304 kts | 322° |
| 2026-05-07 10:18 | 50.97618 | 4.93246 | 6133 ft | 292 kts | 335° |
| 2026-05-07 10:18 | 50.99538 | 4.92554 | 5622 ft | 277 kts | 4° |
| 2026-05-07 10:18 | 51.01318 | 4.93323 | 5300 ft | 259 kts | 31° |
| 2026-05-07 10:18 | 51.02565 | 4.95237 | 4947 ft | 244 kts | 59° |
| 2026-05-07 10:19 | 51.03111 | 4.97638 | 4871 ft | 224 kts | 82° |
| 2026-05-07 10:19 | 51.03024 | 5.00090 | 4827 ft | 223 kts | 105° |
| 2026-05-07 10:19 | 51.02332 | 5.02279 | 4782 ft | 225 kts | 129° |
| 2026-05-07 10:19 | 51.01134 | 5.03873 | 4737 ft | 226 kts | 152° |
| 2026-05-07 10:20 | 50.99634 | 5.04576 | 4691 ft | 227 kts | 176° |
| 2026-05-07 10:20 | 50.98072 | 5.04260 | 4635 ft | 228 kts | 200° |
| 2026-05-07 10:20 | 50.96737 | 5.03000 | 4595 ft | 228 kts | 224° |
| 2026-05-07 10:20 | 50.95797 | 5.00956 | 4561 ft | 227 kts | 244° |
| 2026-05-07 10:21 | 50.95285 | 4.98651 | 4503 ft | 222 kts | 267° |
| 2026-05-07 10:21 | 50.95478 | 4.96334 | 4449 ft | 207 kts | 283° |
| 2026-05-07 10:21 | 50.95740 | 4.94123 | 4408 ft | 203 kts | 282° |
| 2026-05-07 10:21 | 50.95991 | 4.91923 | 4379 ft | 202 kts | 282° |
| 2026-05-07 10:22 | 50.96242 | 4.89731 | 4340 ft | 202 kts | 282° |
| 2026-05-07 10:22 | 50.96491 | 4.87540 | 4303 ft | 202 kts | 282° |
| 2026-05-07 10:22 | 50.96740 | 4.85352 | 4267 ft | 202 kts | 281° |
| 2026-05-07 10:22 | 50.96749 | 4.83124 | 4111 ft | 203 kts | 262° |
| 2026-05-07 10:23 | 50.96409 | 4.80949 | 3877 ft | 203 kts | 253° |
| 2026-05-07 10:23 | 50.95954 | 4.78821 | 3614 ft | 204 kts | 251° |
| 2026-05-07 10:23 | 50.95474 | 4.76700 | 3352 ft | 204 kts | 251° |
| 2026-05-07 10:23 | 50.94992 | 4.74585 | 3086 ft | 203 kts | 251° |
| 2026-05-07 10:24 | 50.94511 | 4.72477 | 2820 ft | 204 kts | 251° |
| 2026-05-07 10:24 | 50.94028 | 4.70359 | 2526 ft | 205 kts | 251° |
| 2026-05-07 10:24 | 50.93545 | 4.68246 | 2304 ft | 203 kts | 251° |
| 2026-05-07 10:24 | 50.93067 | 4.66159 | 2010 ft | 199 kts | 251° |
| 2026-05-07 10:25 | 50.92599 | 4.64110 | 1735 ft | 194 kts | 251° |
| 2026-05-07 10:25 | 50.92150 | 4.62157 | 1467 ft | 183 kts | 251° |
| 2026-05-07 10:25 | 50.91727 | 4.60315 | 1220 ft | 170 kts | 251° |
| 2026-05-07 10:25 | 50.91341 | 4.58632 | 1062 ft | 153 kts | 251° |
| 2026-05-07 10:26 | 50.90990 | 4.57086 | 795 ft | 150 kts | 252° |
| 2026-05-07 10:26 | 50.90638 | 4.55545 | 645 ft | 148 kts | 251° |
| 2026-05-07 10:26 | 50.90269 | 4.53990 | 411 ft | 151 kts | 251° |
| 2026-05-07 10:26 | 50.89924 | 4.52447 | 198 ft | 147 kts | 250° |
| 2026-05-07 10:27 | 50.89611 | 4.51085 | 147 ft | 113 kts | 250° |
| 2026-05-07 10:27 | 50.89369 | 4.50041 | 150 ft | 87 kts | 250° |
| 2026-05-07 10:27 | 50.89225 | 4.49428 | 140 ft | 33 kts | 250° |
| 2026-05-07 10:27 | 50.89163 | 4.49157 | 141 ft | 16 kts | 250° |
| 2026-05-07 10:28 | 50.89167 | 4.49037 | 139 ft | 11 kts | 323° |
| 2026-05-07 10:28 | 50.89234 | 4.49052 | 139 ft | 9 kts | 12° |
| 2026-05-07 10:28 | 50.89262 | 4.49063 | 140 ft | 0 kts | 15° |
| 2026-05-07 10:31 | 50.89280 | 4.49071 | 140 ft | 6 kts | 17° |
| 2026-05-07 10:31 | 50.89364 | 4.49107 | 141 ft | 17 kts | 15° |
| 2026-05-07 10:31 | 50.89487 | 4.49158 | 143 ft | 19 kts | 15° |
| 2026-05-07 10:32 | 50.89608 | 4.49170 | 143 ft | 17 kts | 311° |
| 2026-05-07 10:32 | 50.89709 | 4.49172 | 144 ft | 18 kts | 12° |
| 2026-05-07 10:32 | 50.89831 | 4.49221 | 147 ft | 19 kts | 15° |
| 2026-05-07 10:32 | 50.89970 | 4.49278 | 144 ft | 20 kts | 14° |
| 2026-05-07 10:33 | 50.90104 | 4.49331 | 142 ft | 20 kts | 15° |
| 2026-05-07 10:33 | 50.90228 | 4.49384 | 139 ft | 18 kts | 15° |
| 2026-05-07 10:33 | 50.90331 | 4.49381 | 137 ft | 15 kts | 310° |
| 2026-05-07 10:33 | 50.90383 | 4.49254 | 136 ft | 15 kts | 248° |
| 2026-05-07 10:34 | 50.90340 | 4.49106 | 137 ft | 14 kts | 246° |
| 2026-05-07 10:34 | 50.90293 | 4.48943 | 138 ft | 17 kts | 245° |
| 2026-05-07 10:34 | 50.90241 | 4.48759 | 138 ft | 19 kts | 246° |
| 2026-05-07 10:34 | 50.90198 | 4.48607 | 139 ft | 5 kts | 245° |
| 2026-05-07 10:35 | 50.90225 | 4.48546 | 137 ft | 14 kts | 335° |
| 2026-05-07 10:35 | 50.90261 | 4.48521 | 137 ft | 1 kts | 336° |
| 2026-05-07 10:35 | 50.90261 | 4.48520 | 137 ft | 0 kts | 336° |